Time;durP1;ratioP1;P1;durP2;ratioP2;P2;SDS_P1;SDS_P2;PMS_P1;PMS_P2;Temp;Humidity;BMP_temperature;BMP_pressure;BME280_temperature;BME280_humidity;BME280_pressure;Samples;Min_cycle;Max_cycle;Signal;HPM_P1;HPM_P2
2022/01/17 00:00:31;;;;;;;80.35;38.03;;;;;;;-1.59;100.00;101188.38;5017474;27;20033;-67
2022/01/17 00:02:59;;;;;;;77.82;37.38;;;;;;;-1.59;100.00;101183.13;5008720;28;20055;-68
2022/01/17 00:05:25;;;;;;;85.85;37.63;;;;;;;-1.47;100.00;101195.97;5012935;28;20132;-68
2022/01/17 00:07:51;;;;;;;81.65;37.10;;;;;;;-1.45;100.00;101173.13;5021771;28;20042;-68
2022/01/17 00:10:16;;;;;;;79.25;37.10;;;;;;;-1.38;100.00;101182.59;5014494;28;20036;-68
2022/01/17 00:12:45;;;;;;;86.22;41.20;;;;;;;-1.38;100.00;101177.34;5018035;28;20041;-67
2022/01/17 00:15:23;;;;;;;79.22;38.10;;;;;;;-1.24;100.00;101179.59;5018071;28;20022;-67
2022/01/17 00:17:56;;;;;;;77.05;37.47;;;;;;;-1.19;100.00;101168.03;5006722;28;20034;-67
2022/01/17 00:20:26;;;;;;;73.15;35.30;;;;;;;-1.20;100.00;101160.19;5012237;28;20087;-67
2022/01/17 00:22:53;;;;;;;73.05;35.28;;;;;;;-1.11;100.00;101170.47;5016840;28;20029;-67
2022/01/17 00:25:18;;;;;;;75.43;36.97;;;;;;;-1.09;100.00;101174.81;5017844;28;20048;-68
2022/01/17 00:27:44;;;;;;;74.35;35.38;;;;;;;-1.06;100.00;101174.69;5009814;28;20424;-67
2022/01/17 00:30:10;;;;;;;71.45;35.58;;;;;;;-1.01;100.00;101166.69;5006499;28;20033;-67
2022/01/17 00:32:36;;;;;;;74.32;37.72;;;;;;;-0.86;100.00;101169.78;5011182;28;20026;-68
2022/01/17 00:35:02;;;;;;;73.63;36.30;;;;;;;-0.77;100.00;101171.28;5012823;28;20082;-68
2022/01/17 00:37:28;;;;;;;70.03;34.60;;;;;;;-0.77;100.00;101161.59;5014208;28;20026;-68
2022/01/17 00:39:53;;;;;;;74.93;36.88;;;;;;;-0.69;100.00;101167.53;5013892;28;20037;-68
2022/01/17 00:42:19;;;;;;;67.35;34.40;;;;;;;-0.56;100.00;101170.66;5025930;28;20042;-68
2022/01/17 00:44:44;;;;;;;76.72;36.20;;;;;;;-0.61;100.00;101139.19;5015791;28;20030;-68
2022/01/17 00:47:10;;;;;;;74.28;35.38;;;;;;;-0.51;100.00;101168.78;5011489;28;20091;-68
2022/01/17 00:49:35;;;;;;;68.65;33.67;;;;;;;-0.43;100.00;101166.75;5023301;28;20074;-68
2022/01/17 00:52:01;;;;;;;74.57;34.88;;;;;;;-0.47;100.00;101168.63;5024274;28;20462;-68
2022/01/17 00:54:28;;;;;;;75.40;34.83;;;;;;;-0.50;100.00;101165.22;5021082;28;20128;-68
2022/01/17 00:56:53;;;;;;;73.57;36.53;;;;;;;-0.53;100.00;101144.22;5012676;28;20036;-68
2022/01/17 00:59:18;;;;;;;73.22;35.45;;;;;;;-0.41;100.00;101171.09;5012442;28;20109;-68
2022/01/17 01:01:44;;;;;;;77.47;36.63;;;;;;;-0.47;100.00;101155.47;5024932;28;20038;-67
2022/01/17 01:04:09;;;;;;;74.20;37.75;;;;;;;-0.33;100.00;101157.66;5014478;28;20037;-68
2022/01/17 01:06:36;;;;;;;80.97;37.80;;;;;;;-0.31;100.00;101159.38;5019023;28;20038;-68
2022/01/17 01:09:03;;;;;;;81.57;37.42;;;;;;;-0.37;100.00;101134.97;5017624;28;20494;-67
2022/01/17 01:11:28;;;;;;;70.38;34.58;;;;;;;-0.25;100.00;101153.03;5015954;28;20116;-67
2022/01/17 01:13:54;;;;;;;73.70;35.50;;;;;;;-0.26;100.00;101140.75;5010622;28;20157;-67
2022/01/17 01:29:33;;;;;;;68.70;34.47;;;;;;;0.01;100.00;101147.81;5007975;28;20090;-68
2022/01/17 01:32:04;;;;;;;77.25;35.92;;;;;;;0.00;100.00;101140.84;5009755;28;20436;-68
2022/01/17 01:34:40;;;;;;;66.72;32.22;;;;;;;0.08;100.00;101144.06;5019965;28;20398;-68
2022/01/17 01:37:05;;;;;;;63.42;32.47;;;;;;;0.10;100.00;101130.84;5020515;28;20675;-68
2022/01/17 01:39:33;;;;;;;70.90;34.90;;;;;;;0.19;100.00;101138.47;5015662;27;20091;-68
2022/01/17 01:41:59;;;;;;;70.50;33.35;;;;;;;0.24;100.00;101134.75;5025089;28;20053;-68
2022/01/17 01:44:26;;;;;;;73.28;34.90;;;;;;;0.22;100.00;101125.19;5015191;28;20400;-67
2022/01/17 01:46:53;;;;;;;71.50;34.25;;;;;;;0.27;100.00;101129.38;5028104;27;20034;-66
2022/01/17 01:49:19;;;;;;;68.63;33.55;;;;;;;0.29;100.00;101121.41;5018298;28;20029;-67
2022/01/17 01:51:46;;;;;;;69.07;33.35;;;;;;;0.30;100.00;101112.56;5011266;28;20033;-67
2022/01/17 01:54:13;;;;;;;68.57;35.35;;;;;;;0.34;100.00;101101.00;5017762;28;20457;-67
2022/01/17 01:56:41;;;;;;;67.28;33.40;;;;;;;0.39;100.00;101107.88;5014252;28;20159;-67
2022/01/17 01:59:06;;;;;;;70.03;33.63;;;;;;;0.41;100.00;101115.69;5010888;28;21207;-67
2022/01/17 02:01:33;;;;;;;65.95;34.63;;;;;;;0.42;100.00;101114.81;5010437;28;20025;-67
2022/01/17 02:03:59;;;;;;;66.63;33.63;;;;;;;0.45;100.00;101110.28;5023675;28;20140;-67
2022/01/17 02:06:24;;;;;;;67.93;34.20;;;;;;;0.45;100.00;101106.81;5017804;28;20110;-67
2022/01/17 02:08:50;;;;;;;65.40;34.88;;;;;;;0.42;100.00;101091.91;5010961;27;20071;-67
2022/01/17 02:11:17;;;;;;;68.90;32.72;;;;;;;0.51;100.00;101106.59;5012124;28;20036;-67
2022/01/17 02:13:42;;;;;;;70.85;33.63;;;;;;;0.54;100.00;101101.22;5022096;28;20052;-67
2022/01/17 02:16:11;;;;;;;65.53;33.17;;;;;;;0.57;100.00;101101.06;5025558;28;20025;-67
2022/01/17 02:18:37;;;;;;;71.85;34.58;;;;;;;0.56;100.00;101102.00;5010092;28;20041;-67
2022/01/17 02:23:59;;;;;;;67.43;34.50;;;;;;;0.54;100.00;101095.94;5009927;27;20614;-67
2022/01/17 02:26:26;;;;;;;66.00;32.22;;;;;;;0.54;100.00;101090.66;5020428;28;20026;-67
2022/01/17 02:28:54;;;;;;;70.18;34.45;;;;;;;0.53;100.00;101084.50;5017401;28;20763;-67
2022/01/17 02:31:21;;;;;;;63.03;32.45;;;;;;;0.50;100.00;101083.72;5010351;28;20063;-66
2022/01/17 02:33:49;;;;;;;64.47;33.30;;;;;;;0.48;100.00;101080.31;5011173;27;20048;-66
2022/01/17 02:36:15;;;;;;;68.95;33.75;;;;;;;0.48;100.00;101077.66;5011956;28;20034;-66
2022/01/17 02:38:41;;;;;;;68.65;32.97;;;;;;;0.40;100.00;101077.94;5010488;28;20041;-67
2022/01/17 02:41:07;;;;;;;66.35;33.22;;;;;;;0.40;100.00;101084.97;5012588;27;20025;-66
2022/01/17 02:43:33;;;;;;;66.10;33.67;;;;;;;0.34;100.00;101080.78;5012693;28;20563;-66
2022/01/17 02:48:28;;;;;;;68.93;33.50;;;;;;;0.26;100.00;101058.22;5013375;28;20038;-67
2022/01/17 02:50:54;;;;;;;69.18;34.13;;;;;;;0.31;100.00;101067.69;5009577;27;20893;-67
2022/01/17 02:53:20;;;;;;;71.72;35.20;;;;;;;0.28;100.00;101074.81;5012720;28;20022;-67
2022/01/17 02:55:51;;;;;;;66.38;31.85;;;;;;;0.23;100.00;101069.75;5012931;28;20569;-67
2022/01/17 02:58:19;;;;;;;60.55;31.63;;;;;;;0.28;100.00;101078.34;5010634;28;20029;-67
2022/01/17 03:00:46;;;;;;;63.30;29.80;;;;;;;0.22;100.00;101068.00;5010711;28;20021;-67
2022/01/17 03:03:19;;;;;;;61.60;29.45;;;;;;;0.27;100.00;101084.53;5010967;28;20022;-66
2022/01/17 03:05:45;;;;;;;59.33;29.20;;;;;;;0.32;100.00;101079.94;5010041;28;20037;-67
2022/01/17 03:08:12;;;;;;;56.05;27.95;;;;;;;0.33;100.00;101076.41;5011004;28;20086;-67
2022/01/17 03:10:43;;;;;;;54.47;27.60;;;;;;;0.26;100.00;101059.09;5009415;28;20040;-67
2022/01/17 03:13:12;;;;;;;52.88;27.33;;;;;;;0.35;100.00;101073.72;5013364;27;20037;-67
2022/01/17 03:15:39;;;;;;;55.72;26.98;;;;;;;0.37;100.00;101083.31;5011386;28;20478;-66
2022/01/17 03:18:05;;;;;;;52.45;25.92;;;;;;;0.42;100.00;101076.06;5012210;28;20117;-67
2022/01/17 03:20:34;;;;;;;54.50;26.40;;;;;;;0.40;100.00;101064.75;5014390;28;20363;-68
2022/01/17 03:23:00;;;;;;;54.80;27.48;;;;;;;0.42;100.00;101065.53;5016618;27;20042;-68
2022/01/17 03:25:25;;;;;;;50.50;25.40;;;;;;;0.56;100.00;101068.56;5020381;28;20045;-68
2022/01/17 03:27:51;;;;;;;53.97;25.63;;;;;;;0.64;100.00;101070.94;5011277;28;20033;-68
2022/01/17 03:30:16;;;;;;;46.30;24.40;;;;;;;0.65;100.00;101055.06;5011916;28;20562;-68
2022/01/17 03:32:41;;;;;;;49.92;24.48;;;;;;;0.85;100.00;101070.16;5014539;28;20034;-69
2022/01/17 03:35:07;;;;;;;49.42;24.98;;;;;;;0.84;100.00;101050.81;5015266;28;20044;-69
2022/01/17 03:37:33;;;;;;;42.55;22.67;;;;;;;1.03;100.00;101067.69;5013168;27;20029;-69
2022/01/17 03:39:59;;;;;;;46.75;23.17;;;;;;;1.03;100.00;101069.50;5020906;28;20048;-69
2022/01/17 03:42:24;;;;;;;43.35;22.83;;;;;;;1.10;100.00;101066.53;5022996;28;20060;-69
2022/01/17 03:44:51;;;;;;;42.50;22.98;;;;;;;1.00;100.00;101053.75;5016424;28;20034;-69
2022/01/17 03:47:17;;;;;;;41.67;22.58;;;;;;;1.04;100.00;101064.16;5026802;28;20045;-69
2022/01/17 03:49:43;;;;;;;46.55;22.63;;;;;;;1.00;100.00;101044.03;5020860;28;20026;-69
2022/01/17 03:52:09;;;;;;;39.97;21.60;;;;;;;1.00;100.00;101048.47;5015480;28;20121;-69
2022/01/17 03:54:35;;;;;;;44.13;22.10;;;;;;;1.01;100.00;101045.78;5009985;28;20932;-69
2022/01/17 03:57:01;;;;;;;39.80;20.77;;;;;;;1.06;100.00;101043.81;5014392;28;20041;-69
2022/01/17 03:59:27;;;;;;;44.05;21.90;;;;;;;1.09;100.00;101040.19;5016965;28;20120;-68
2022/01/17 04:01:53;;;;;;;46.30;21.92;;;;;;;1.04;100.00;101036.88;5022774;28;20500;-68
2022/01/17 04:04:18;;;;;;;44.25;23.38;;;;;;;1.07;100.00;101032.34;5021308;28;20022;-68
2022/01/17 04:06:44;;;;;;;42.00;23.17;;;;;;;1.15;100.00;101045.25;5020578;28;20048;-68
2022/01/17 04:09:10;;;;;;;40.75;20.65;;;;;;;1.12;100.00;101034.78;5019040;28;20049;-68
2022/01/17 04:11:36;;;;;;;40.63;22.13;;;;;;;1.20;100.00;101049.47;5012899;28;20032;-68
2022/01/17 04:14:03;;;;;;;41.40;21.50;;;;;;;1.18;100.00;101046.00;5027492;28;20024;-68
2022/01/17 04:16:29;;;;;;;38.95;21.02;;;;;;;1.24;100.00;101045.78;5019425;28;20082;-68
2022/01/17 04:18:55;;;;;;;39.85;22.33;;;;;;;1.25;100.00;101042.19;5027890;28;20029;-67
2022/01/17 04:21:21;;;;;;;44.03;21.48;;;;;;;1.17;100.00;101036.38;5012255;28;20029;-68
2022/01/17 04:23:46;;;;;;;37.03;19.73;;;;;;;1.23;100.00;101046.66;5007284;28;20022;-68
2022/01/17 04:26:12;;;;;;;37.78;19.80;;;;;;;1.25;100.00;101055.41;5019556;28;20060;-68
2022/01/17 04:28:38;;;;;;;36.53;19.95;;;;;;;1.25;100.00;101041.31;5017485;28;20066;-68
2022/01/17 04:31:04;;;;;;;37.90;20.48;;;;;;;1.27;100.00;101035.09;5004282;28;20026;-68
2022/01/17 04:33:29;;;;;;;34.05;19.88;;;;;;;1.24;100.00;101034.34;5010389;28;20025;-68
2022/01/17 04:35:55;;;;;;;35.95;19.67;;;;;;;1.27;100.00;101048.31;5007358;28;20029;-68
2022/01/17 04:38:20;;;;;;;31.92;17.48;;;;;;;1.31;100.00;101055.19;5009216;28;20034;-68
2022/01/17 04:40:49;;;;;;;35.15;19.63;;;;;;;1.23;100.00;101043.19;5018482;28;20025;-68
2022/01/17 04:43:44;;;;;;;34.30;18.88;;;;;;;1.29;100.00;101062.28;5011036;28;20052;-68
2022/01/17 04:46:06;;;;;;;35.83;18.63;;;;;;;1.30;100.00;101069.31;5009161;28;20041;-68
2022/01/17 04:48:32;;;;;;;30.85;16.60;;;;;;;1.34;100.00;101091.19;5008391;28;20126;-68
2022/01/17 04:50:59;;;;;;;31.85;17.50;;;;;;;1.30;100.00;101071.97;5007679;28;20071;-68
2022/01/17 04:53:25;;;;;;;34.45;18.13;;;;;;;1.28;100.00;101070.28;5015417;28;20025;-68
2022/01/17 04:55:51;;;;;;;33.22;17.27;;;;;;;1.29;99.83;101066.75;5010857;28;21398;-68
2022/01/17 04:58:17;;;;;;;35.45;18.30;;;;;;;1.30;99.63;101074.59;5006730;28;20034;-68
2022/01/17 05:00:46;;;;;;;31.80;16.98;;;;;;;1.23;99.70;101070.44;5007003;28;20532;-68
2022/01/17 05:03:16;;;;;;;33.42;18.05;;;;;;;1.29;99.49;101066.75;5014920;28;20075;-68
2022/01/17 05:05:42;;;;;;;32.03;17.20;;;;;;;1.21;98.93;101047.66;5015951;28;20045;-69
2022/01/17 05:08:07;;;;;;;33.35;17.35;;;;;;;1.18;98.71;101043.34;5011516;27;20051;-70
2022/01/17 05:10:33;;;;;;;37.13;18.40;;;;;;;1.21;98.56;101053.81;5011889;28;20037;-69
2022/01/17 05:12:58;;;;;;;30.45;16.75;;;;;;;1.18;98.63;101034.56;5021146;28;20026;-69
2022/01/17 05:15:34;;;;;;;30.17;16.10;;;;;;;1.22;98.97;101052.88;5018113;28;20112;-69
2022/01/17 05:20:32;;;;;;;33.03;17.30;;;;;;;1.50;97.56;101047.38;5014372;28;20497;-69
2022/01/17 05:22:57;;;;;;;31.35;16.75;;;;;;;1.47;97.22;101037.81;5020202;28;20065;-69
2022/01/17 05:25:23;;;;;;;29.88;16.10;;;;;;;1.48;97.46;101058.03;5011395;27;20029;-69
2022/01/17 05:27:49;;;;;;;32.00;17.00;;;;;;;1.52;97.46;101049.03;5014289;28;20034;-69
2022/01/17 05:30:17;;;;;;;31.00;16.60;;;;;;;1.50;97.41;101058.84;5020907;28;20587;-69
2022/01/17 05:32:43;;;;;;;29.85;16.27;;;;;;;1.52;97.30;101067.56;5016651;28;20442;-69
2022/01/17 05:35:09;;;;;;;29.17;16.40;;;;;;;1.43;97.38;101053.84;5020893;28;20034;-69
2022/01/17 05:37:35;;;;;;;30.90;17.40;;;;;;;1.53;97.52;101063.13;5020216;28;20045;-68
2022/01/17 05:40:01;;;;;;;31.50;16.02;;;;;;;1.50;97.33;101057.97;5023548;27;20034;-69
2022/01/17 05:42:26;;;;;;;31.40;16.55;;;;;;;1.45;97.81;101055.50;5014145;28;21610;-68
2022/01/17 05:44:53;;;;;;;28.05;16.48;;;;;;;1.46;97.78;101056.38;5037822;28;20133;-68
2022/01/17 05:47:19;;;;;;;29.77;16.60;;;;;;;1.50;97.94;101058.84;5018686;28;20116;-68
2022/01/17 05:49:45;;;;;;;31.63;16.77;;;;;;;1.47;98.27;101050.16;5015222;28;20033;-68
2022/01/17 05:52:11;;;;;;;30.45;17.33;;;;;;;1.54;97.85;101062.19;5016533;28;20025;-68
2022/01/17 05:54:37;;;;;;;32.45;17.25;;;;;;;1.51;97.95;101054.38;5044131;28;20488;-69
2022/01/17 05:57:03;;;;;;;37.03;18.42;;;;;;;1.51;98.33;101036.75;5016074;28;20065;-69
2022/01/17 05:59:28;;;;;;;35.22;18.17;;;;;;;1.48;98.27;101021.03;5016857;28;20036;-69
2022/01/17 06:01:55;;;;;;;33.05;18.15;;;;;;;1.51;98.40;101023.53;5021215;28;20029;-69
2022/01/17 06:04:20;;;;;;;39.83;18.48;;;;;;;1.56;98.54;101049.81;5030520;27;20037;-69
2022/01/17 06:06:47;;;;;;;34.60;18.05;;;;;;;1.55;98.53;101059.50;5032619;27;20096;-69
2022/01/17 06:09:12;;;;;;;32.90;18.40;;;;;;;1.55;98.52;101058.66;5014265;28;20387;-69
2022/01/17 06:11:37;;;;;;;35.38;18.67;;;;;;;1.54;98.22;101059.56;5012372;28;20028;-69
2022/01/17 06:14:04;;;;;;;34.13;17.77;;;;;;;1.51;98.46;101046.47;5015824;27;20072;-69
2022/01/17 06:16:30;;;;;;;36.85;18.83;;;;;;;1.55;98.62;101048.09;5050203;27;20116;-68
2022/01/17 06:18:56;;;;;;;36.90;20.27;;;;;;;1.55;98.46;101040.16;5026817;28;20108;-68
2022/01/17 06:21:21;;;;;;;36.97;19.20;;;;;;;1.48;98.20;101034.25;5028469;28;20033;-68
2022/01/17 06:23:47;;;;;;;35.42;19.23;;;;;;;1.53;98.56;101045.50;5014995;28;20120;-68
2022/01/17 06:26:12;;;;;;;35.90;19.70;;;;;;;1.49;98.81;101041.22;5043278;27;20033;-69
2022/01/17 06:28:38;;;;;;;38.08;20.50;;;;;;;1.56;98.63;101052.44;5037490;27;20037;-68
2022/01/17 06:31:03;;;;;;;38.78;19.35;;;;;;;1.48;99.01;101034.25;5026879;28;20044;-68
2022/01/17 06:33:29;;;;;;;37.00;18.65;;;;;;;1.55;98.94;101041.00;5055594;27;20042;-69
2022/01/17 06:35:54;;;;;;;35.53;19.48;;;;;;;1.46;98.79;101020.25;5018383;28;20056;-68
2022/01/17 06:38:19;;;;;;;34.25;19.13;;;;;;;1.58;98.94;101032.94;5013766;28;20029;-68
2022/01/17 06:40:45;;;;;;;37.72;20.42;;;;;;;1.56;98.70;101020.72;5015821;28;20072;-68
2022/01/17 06:43:10;;;;;;;36.80;21.08;;;;;;;1.58;99.21;101030.31;5022603;28;20061;-69
2022/01/17 06:45:37;;;;;;;34.22;20.08;;;;;;;1.59;98.83;101023.25;5014723;27;20387;-69
2022/01/17 06:48:05;;;;;;;36.35;19.48;;;;;;;1.61;99.35;101030.19;5018118;28;20033;-69
2022/01/17 06:50:31;;;;;;;32.75;18.13;;;;;;;1.60;99.36;101009.97;5018835;27;20030;-69
2022/01/17 06:52:57;;;;;;;29.10;17.13;;;;;;;1.66;99.53;101009.72;5012634;28;20397;-69
2022/01/17 06:55:22;;;;;;;30.58;16.88;;;;;;;1.64;99.04;101011.56;5028072;27;20041;-68
2022/01/17 06:57:48;;;;;;;34.20;17.40;;;;;;;1.69;99.28;101011.38;5019927;28;20046;-69
2022/01/17 07:00:14;;;;;;;32.75;16.52;;;;;;;1.68;99.53;101015.78;5019930;28;20526;-68
2022/01/17 07:02:39;;;;;;;28.55;15.57;;;;;;;1.74;99.23;101026.13;5016018;27;20381;-69
2022/01/17 07:05:05;;;;;;;31.60;16.50;;;;;;;1.81;98.73;101013.53;5014822;27;20504;-69
2022/01/17 07:07:31;;;;;;;28.23;15.70;;;;;;;1.85;98.54;101008.06;5012950;27;20034;-68
2022/01/17 07:09:56;;;;;;;26.08;15.13;;;;;;;1.82;98.37;100992.31;5040442;27;20067;-68
2022/01/17 07:12:22;;;;;;;28.58;15.02;;;;;;;1.93;98.14;100992.72;5013238;27;20034;-68
2022/01/17 07:14:47;;;;;;;25.40;15.05;;;;;;;1.96;97.77;100982.00;5026169;28;20033;-68
2022/01/17 07:17:13;;;;;;;27.13;15.07;;;;;;;1.93;98.03;100974.19;5009497;28;20497;-65
2022/01/17 07:19:39;;;;;;;28.48;15.75;;;;;;;1.98;97.84;100961.66;5027269;27;20043;-66
2022/01/17 07:22:05;;;;;;;31.25;16.25;;;;;;;2.03;97.69;100983.47;5025104;27;20040;-65
2022/01/17 07:24:32;;;;;;;28.35;15.70;;;;;;;2.12;97.86;100998.94;5016551;28;20100;-65
2022/01/17 07:26:57;;;;;;;25.08;14.23;;;;;;;2.12;97.32;101000.72;5009396;28;20026;-65
2022/01/17 07:29:24;;;;;;;27.00;15.07;;;;;;;2.16;97.31;100992.59;5026618;28;20044;-65
2022/01/17 07:31:50;;;;;;;26.45;15.25;;;;;;;2.19;96.82;101005.69;5026512;28;20033;-66
2022/01/17 07:34:15;;;;;;;25.42;15.15;;;;;;;2.24;96.87;101008.16;5025792;28;20041;-66
2022/01/17 07:36:40;;;;;;;25.08;14.90;;;;;;;2.34;96.21;101026.22;5012048;28;20046;-66
2022/01/17 07:39:06;;;;;;;28.25;15.40;;;;;;;2.38;96.76;101041.97;5016788;28;20301;-67
2022/01/17 07:41:31;;;;;;;37.88;19.23;;;;;;;2.39;96.41;101055.16;5028771;28;20632;-67
2022/01/17 07:43:58;;;;;;;35.38;18.42;;;;;;;2.42;96.49;101064.72;5026235;28;20517;-67
2022/01/17 07:46:31;;;;;;;29.35;17.15;;;;;;;2.43;96.60;101086.69;5027440;28;20565;-67
2022/01/17 07:49:10;;;;;;;33.38;17.98;;;;;;;2.43;96.56;101088.50;5028725;28;20025;-67
2022/01/17 07:51:38;;;;;;;35.15;17.50;;;;;;;2.49;96.69;101084.72;5028614;28;20097;-68
2022/01/17 07:54:04;;;;;;;34.55;17.40;;;;;;;2.49;96.75;101061.75;5023620;28;20021;-67
2022/01/17 07:56:32;;;;;;;29.40;15.95;;;;;;;2.56;96.31;101046.47;5025972;28;20154;-67
2022/01/17 07:58:58;;;;;;;28.60;16.08;;;;;;;2.53;96.32;101036.00;5021205;28;20033;-67
2022/01/17 08:01:23;;;;;;;27.90;16.00;;;;;;;2.56;96.21;101027.94;5023428;28;20060;-67
2022/01/17 08:03:49;;;;;;;26.52;14.63;;;;;;;2.55;95.98;101023.56;5025890;27;20485;-67
2022/01/17 08:06:14;;;;;;;28.13;15.27;;;;;;;2.61;95.65;101033.88;5028843;27;20155;-67
2022/01/17 08:08:40;;;;;;;25.65;15.05;;;;;;;2.64;95.83;101021.34;5021291;27;20060;-68
2022/01/17 08:11:05;;;;;;;25.38;14.98;;;;;;;2.68;95.54;101016.81;5017860;28;20108;-67
2022/01/17 08:13:31;;;;;;;30.33;16.92;;;;;;;2.71;95.74;101008.72;5020619;28;20508;-67
2022/01/17 08:15:56;;;;;;;26.77;15.57;;;;;;;2.71;95.51;100988.38;5021024;28;20029;-67
2022/01/17 08:18:22;;;;;;;30.20;16.38;;;;;;;2.80;95.82;101000.38;5030314;27;20033;-67
2022/01/17 08:20:47;;;;;;;28.80;14.18;;;;;;;2.85;95.57;101001.88;5016187;28;20045;-67
2022/01/17 08:23:13;;;;;;;23.90;13.48;;;;;;;2.89;94.97;100981.38;5017840;28;20391;-68
2022/01/17 08:25:38;;;;;;;19.58;11.55;;;;;;;2.94;94.75;100959.06;5022193;28;20051;-67
2022/01/17 08:28:04;;;;;;;23.00;12.05;;;;;;;3.03;94.49;100963.91;5024812;28;20029;-67
2022/01/17 08:30:32;;;;;;;18.55;11.18;;;;;;;3.05;94.24;100956.78;5016487;28;20037;-68
2022/01/17 08:32:58;;;;;;;18.60;11.75;;;;;;;3.10;93.95;100952.13;5012766;27;20033;-67
2022/01/17 08:35:24;;;;;;;18.88;11.65;;;;;;;3.17;93.04;100939.44;5016400;28;20048;-67
2022/01/17 08:37:49;;;;;;;25.65;12.48;;;;;;;3.24;93.09;100960.28;5013972;28;20041;-67
2022/01/17 08:40:16;;;;;;;21.58;12.90;;;;;;;3.33;91.89;100974.88;5008666;28;20438;-68
2022/01/17 08:42:42;;;;;;;22.45;12.88;;;;;;;3.34;91.57;100998.66;5017850;28;20123;-68
2022/01/17 08:45:12;;;;;;;23.02;13.55;;;;;;;3.40;91.80;101026.66;5026279;28;20145;-68
2022/01/17 08:47:38;;;;;;;23.85;13.93;;;;;;;3.42;91.65;101030.13;5025164;28;20082;-68
2022/01/17 08:50:06;;;;;;;27.20;14.55;;;;;;;3.47;91.31;101028.09;5025367;28;20029;-68
2022/01/17 08:52:31;;;;;;;25.75;16.55;;;;;;;3.47;90.86;101013.06;5014826;28;20033;-67
2022/01/17 08:54:57;;;;;;;31.15;17.45;;;;;;;3.56;90.43;101011.75;5017553;28;20082;-68
2022/01/17 08:57:23;;;;;;;31.02;16.77;;;;;;;3.65;88.40;100996.22;5014653;28;20026;-67
2022/01/17 08:59:49;;;;;;;27.08;17.00;;;;;;;3.86;86.61;100967.78;5012811;28;20530;-68
2022/01/17 09:02:14;;;;;;;27.73;17.42;;;;;;;4.04;84.12;100959.78;5007904;28;20037;-68
2022/01/17 09:04:42;;;;;;;27.17;17.35;;;;;;;3.97;84.72;100954.88;5007622;28;20034;-68
2022/01/17 09:07:10;;;;;;;31.52;17.27;;;;;;;3.98;84.81;100932.69;5015718;28;20052;-68
2022/01/17 09:09:37;;;;;;;28.60;17.52;;;;;;;4.04;83.86;100925.28;5020071;28;20045;-68
2022/01/17 09:12:03;;;;;;;27.88;17.27;;;;;;;4.17;82.65;100928.16;5013228;28;20034;-68
2022/01/17 09:14:28;;;;;;;28.33;16.38;;;;;;;4.25;81.93;100921.50;5013715;28;20385;-68
2022/01/17 09:16:54;;;;;;;30.58;17.45;;;;;;;4.22;81.92;100916.34;5043134;28;20037;-68
2022/01/17 09:19:19;;;;;;;33.63;18.33;;;;;;;4.25;81.76;100936.56;5007908;28;20156;-68
2022/01/17 09:21:45;;;;;;;29.88;16.98;;;;;;;4.31;81.73;100930.94;5009203;28;20041;-68
2022/01/17 09:24:10;;;;;;;27.90;16.70;;;;;;;4.40;80.46;100910.09;5025935;28;20034;-68
2022/01/17 09:26:36;;;;;;;30.63;17.55;;;;;;;4.55;79.86;100919.88;5026205;28;20022;-68
2022/01/17 09:29:02;;;;;;;24.75;16.20;;;;;;;4.53;79.70;100924.44;5020829;28;20480;-68
2022/01/17 09:31:27;;;;;;;28.25;16.95;;;;;;;4.46;80.31;100923.00;5027447;28;20040;-68
2022/01/17 09:33:53;;;;;;;29.55;16.92;;;;;;;4.55;79.79;100917.22;5013033;28;20037;-68
2022/01/17 09:36:20;;;;;;;29.15;17.10;;;;;;;4.53;79.69;100919.13;5019773;28;20030;-68
2022/01/17 09:38:46;;;;;;;27.98;17.00;;;;;;;4.53;79.76;100923.56;5022743;28;20122;-68
2022/01/17 09:41:11;;;;;;;34.28;17.27;;;;;;;4.81;77.48;100922.91;5007274;28;20055;-68
2022/01/17 09:43:37;;;;;;;27.63;16.35;;;;;;;4.87;76.58;100906.66;5015595;28;21068;-68
2022/01/17 09:46:03;;;;;;;25.63;16.02;;;;;;;4.86;76.09;100912.91;5023056;28;20070;-69
2022/01/17 09:48:35;;;;;;;24.55;15.07;;;;;;;4.92;75.60;100894.81;5027315;28;20025;-68
2022/01/17 09:52:04;;;;;;;25.20;15.80;;;;;;;4.91;76.09;100893.09;5017696;28;20026;-68
2022/01/17 09:54:01;;;;;;;26.67;15.73;;;;;;;4.94;75.39;100871.69;5028349;28;20585;-68
2022/01/17 09:56:29;;;;;;;26.60;16.10;;;;;;;4.94;76.14;100877.00;5024926;28;20109;-69
2022/01/17 09:58:55;;;;;;;26.55;16.05;;;;;;;4.88;75.99;100844.56;5016613;28;20038;-69
2022/01/17 10:01:20;;;;;;;26.27;15.82;;;;;;;4.85;76.57;100860.69;5020566;27;20408;-68
2022/01/17 10:03:46;;;;;;;26.83;16.25;;;;;;;4.80;76.60;100845.00;5028175;28;20504;-68
2022/01/17 10:06:12;;;;;;;25.35;15.95;;;;;;;4.78;77.00;100829.13;5022690;28;20375;-69
2022/01/17 10:08:37;;;;;;;27.45;15.80;;;;;;;4.78;77.04;100800.88;5015043;28;20098;-69
2022/01/17 10:11:12;;;;;;;34.33;19.95;;;;;;;4.87;76.82;100810.97;5042325;28;20560;-68
2022/01/17 10:13:44;;;;;;;30.70;19.23;;;;;;;4.89;77.14;100814.38;5011729;27;20058;-68
2022/01/17 10:16:21;;;;;;;34.47;19.48;;;;;;;5.00;76.14;100801.38;5008992;28;20038;-68
2022/01/17 10:19:02;;;;;;;37.17;20.40;;;;;;;5.04;76.14;100784.28;5020585;28;20060;-68
2022/01/17 10:21:49;;;;;;;28.92;18.27;;;;;;;5.07;76.11;100779.66;5019350;28;20390;-69
2022/01/17 10:24:29;;;;;;;28.48;17.20;;;;;;;5.13;74.92;100760.72;5030090;28;20502;-68
2022/01/17 10:35:12;;;;;;;29.55;17.10;;;;;;;5.21;74.77;100782.38;5022233;28;20095;-68
2022/01/17 10:37:38;;;;;;;30.70;17.63;;;;;;;5.16;74.61;100795.06;5027408;27;20029;-68
2022/01/17 10:40:05;;;;;;;29.30;18.63;;;;;;;5.14;74.83;100773.03;5023818;28;20044;-68
2022/01/17 10:42:42;;;;;;;30.40;17.40;;;;;;;5.18;75.51;100777.22;5025027;27;20131;-68
2022/01/17 10:45:08;;;;;;;30.00;18.10;;;;;;;5.14;75.48;100753.56;5029560;28;20025;-67
2022/01/17 10:47:36;;;;;;;27.83;17.55;;;;;;;5.14;75.61;100765.06;5027612;28;20038;-67
2022/01/17 10:50:09;;;;;;;27.58;17.05;;;;;;;5.08;75.77;100760.09;5027899;28;20040;-67
2022/01/17 10:52:40;;;;;;;31.95;18.40;;;;;;;5.11;75.84;100737.78;5023412;27;20052;-67
2022/01/17 10:55:14;;;;;;;29.80;17.80;;;;;;;5.06;76.41;100726.59;5008901;28;20041;-67
2022/01/17 10:57:43;;;;;;;32.58;17.42;;;;;;;5.12;76.07;100731.56;5027433;28;20037;-67
2022/01/17 11:00:15;;;;;;;30.25;19.25;;;;;;;5.12;76.35;100719.09;5022841;28;20034;-67
2022/01/17 11:02:45;;;;;;;32.70;18.15;;;;;;;5.09;76.28;100705.97;5028515;27;20026;-67
2022/01/17 11:05:13;;;;;;;29.95;17.50;;;;;;;5.17;76.46;100710.84;5026517;28;20026;-66
2022/01/17 11:07:40;;;;;;;32.00;19.63;;;;;;;5.20;75.84;100708.88;5018122;27;20030;-66
2022/01/17 11:10:13;;;;;;;34.53;19.60;;;;;;;5.21;74.99;100707.91;5017309;28;20058;-67
2022/01/17 11:12:38;;;;;;;30.88;19.75;;;;;;;5.32;75.01;100710.78;5021824;28;20091;-67
2022/01/17 11:15:04;;;;;;;33.70;19.73;;;;;;;5.42;74.71;100701.28;5017148;28;20034;-68
2022/01/17 11:17:35;;;;;;;34.10;19.67;;;;;;;5.36;75.52;100688.41;5011341;28;20033;-68
2022/01/17 11:20:07;;;;;;;30.45;18.77;;;;;;;5.40;74.86;100673.94;5023261;28;20449;-68
2022/01/17 11:22:38;;;;;;;33.97;19.27;;;;;;;5.41;74.36;100662.34;5020724;28;20025;-68
2022/01/17 11:25:06;;;;;;;32.10;18.85;;;;;;;5.52;74.00;100673.22;5025151;28;20110;-68
2022/01/17 11:27:32;;;;;;;31.75;18.98;;;;;;;5.62;73.21;100668.16;5021857;28;20078;-68
2022/01/17 11:29:59;;;;;;;29.88;18.27;;;;;;;5.72;72.69;100661.31;5022216;28;20036;-67
2022/01/17 11:32:24;;;;;;;38.72;19.38;;;;;;;5.78;72.32;100666.25;5008421;28;20097;-68
2022/01/17 11:34:57;;;;;;;29.10;18.48;;;;;;;5.73;72.69;100661.22;5054670;28;20120;-68
2022/01/17 11:37:24;;;;;;;28.23;18.02;;;;;;;5.66;72.60;100667.03;5016765;28;20110;-68
2022/01/17 11:39:52;;;;;;;30.80;18.67;;;;;;;5.74;72.34;100678.88;5026833;28;20056;-68